sensor_id;sensor_type;location;lat;lon;timestamp;pressure;altitude;pressure_sealevel;temperature;humidity
13015;BME280;6573;57.696;11.950;2023-06-24T00:02:04;101789.69;;;21.64;100.00
13015;BME280;6573;57.696;11.950;2023-06-24T00:04:34;101785.47;;;21.57;100.00
13015;BME280;6573;57.696;11.950;2023-06-24T00:07:03;101797.41;;;21.47;100.00
13015;BME280;6573;57.696;11.950;2023-06-24T00:09:31;101796.81;;;21.38;100.00
13015;BME280;6573;57.696;11.950;2023-06-24T00:12:01;101808.19;;;21.44;100.00
13015;BME280;6573;57.696;11.950;2023-06-24T00:14:32;101789.53;;;21.41;100.00
13015;BME280;6573;57.696;11.950;2023-06-24T00:17:04;101795.78;;;21.42;100.00
13015;BME280;6573;57.696;11.950;2023-06-24T00:19:35;101787.72;;;21.43;100.00
13015;BME280;6573;57.696;11.950;2023-06-24T00:22:07;101792.34;;;21.38;100.00
13015;BME280;6573;57.696;11.950;2023-06-24T00:24:37;101803.97;;;21.37;100.00
13015;BME280;6573;57.696;11.950;2023-06-24T00:27:08;101813.94;;;21.32;100.00
13015;BME280;6573;57.696;11.950;2023-06-24T00:29:36;101812.28;;;21.28;100.00
13015;BME280;6573;57.696;11.950;2023-06-24T00:32:06;101810.53;;;21.27;100.00
13015;BME280;6573;57.696;11.950;2023-06-24T00:34:36;101805.97;;;21.31;100.00
13015;BME280;6573;57.696;11.950;2023-06-24T00:37:05;101805.25;;;21.24;100.00
13015;BME280;6573;57.696;11.950;2023-06-24T00:39:37;101804.34;;;21.25;100.00
13015;BME280;6573;57.696;11.950;2023-06-24T00:42:06;101803.44;;;21.26;100.00
13015;BME280;6573;57.696;11.950;2023-06-24T00:44:34;101808.78;;;21.26;100.00
13015;BME280;6573;57.696;11.950;2023-06-24T00:47:05;101801.00;;;21.18;100.00
13015;BME280;6573;57.696;11.950;2023-06-24T00:49:36;101807.31;;;21.16;100.00
13015;BME280;6573;57.696;11.950;2023-06-24T00:52:07;101797.13;;;20.98;100.00
13015;BME280;6573;57.696;11.950;2023-06-24T00:54:36;101802.41;;;21.01;100.00
13015;BME280;6573;57.696;11.950;2023-06-24T00:57:05;101796.25;;;20.97;100.00
13015;BME280;6573;57.696;11.950;2023-06-24T00:59:34;101799.25;;;20.87;100.00
13015;BME280;6573;57.696;11.950;2023-06-24T01:02:04;101792.31;;;20.80;100.00
13015;BME280;6573;57.696;11.950;2023-06-24T01:04:33;101776.91;;;20.58;100.00
13015;BME280;6573;57.696;11.950;2023-06-24T01:07:05;101795.94;;;20.79;100.00
13015;BME280;6573;57.696;11.950;2023-06-24T01:09:35;101787.16;;;20.74;100.00
13015;BME280;6573;57.696;11.950;2023-06-24T01:12:04;101788.03;;;20.74;100.00
13015;BME280;6573;57.696;11.950;2023-06-24T01:14:34;101788.44;;;20.60;100.00
13015;BME280;6573;57.696;11.950;2023-06-24T01:17:11;101784.00;;;20.59;100.00
13015;BME280;6573;57.696;11.950;2023-06-24T01:19:54;101775.41;;;20.48;100.00
13015;BME280;6573;57.696;11.950;2023-06-24T01:22:44;101779.88;;;20.48;100.00
13015;BME280;6573;57.696;11.950;2023-06-24T01:25:29;101782.50;;;20.49;100.00
13015;BME280;6573;57.696;11.950;2023-06-24T01:28:21;101780.78;;;20.48;100.00
13015;BME280;6573;57.696;11.950;2023-06-24T01:31:15;101788.88;;;20.45;100.00
13015;BME280;6573;57.696;11.950;2023-06-24T01:33:49;101785.59;;;20.34;100.00
13015;BME280;6573;57.696;11.950;2023-06-24T01:36:18;101792.78;;;20.34;100.00
13015;BME280;6573;57.696;11.950;2023-06-24T01:38:55;101792.03;;;20.27;100.00
13015;BME280;6573;57.696;11.950;2023-06-24T01:41:26;101788.38;;;20.31;100.00
13015;BME280;6573;57.696;11.950;2023-06-24T01:43:58;101798.19;;;20.31;100.00
13015;BME280;6573;57.696;11.950;2023-06-24T01:46:29;101770.78;;;20.24;100.00
13015;BME280;6573;57.696;11.950;2023-06-24T01:49:01;101793.63;;;20.34;100.00
13015;BME280;6573;57.696;11.950;2023-06-24T01:51:32;101794.72;;;20.27;100.00
13015;BME280;6573;57.696;11.950;2023-06-24T01:54:07;101799.22;;;20.25;100.00
13015;BME280;6573;57.696;11.950;2023-06-24T01:56:39;101796.84;;;20.13;100.00
13015;BME280;6573;57.696;11.950;2023-06-24T01:59:10;101794.19;;;20.13;100.00
13015;BME280;6573;57.696;11.950;2023-06-24T02:01:42;101792.34;;;20.15;100.00
13015;BME280;6573;57.696;11.950;2023-06-24T02:04:13;101781.91;;;20.06;100.00
13015;BME280;6573;57.696;11.950;2023-06-24T02:06:43;101783.41;;;20.16;100.00
13015;BME280;6573;57.696;11.950;2023-06-24T02:09:14;101803.75;;;20.23;100.00
13015;BME280;6573;57.696;11.950;2023-06-24T02:11:44;101794.25;;;20.10;100.00
13015;BME280;6573;57.696;11.950;2023-06-24T02:14:14;101802.94;;;20.18;100.00
13015;BME280;6573;57.696;11.950;2023-06-24T02:16:46;101801.09;;;20.20;100.00
13015;BME280;6573;57.696;11.950;2023-06-24T02:19:16;101805.69;;;20.15;100.00
13015;BME280;6573;57.696;11.950;2023-06-24T02:21:46;101795.00;;;20.17;100.00
13015;BME280;6573;57.696;11.950;2023-06-24T02:24:19;101793.16;;;20.17;100.00
13015;BME280;6573;57.696;11.950;2023-06-24T02:26:48;101794.88;;;20.21;100.00
13015;BME280;6573;57.696;11.950;2023-06-24T02:29:20;101797.69;;;20.15;100.00
13015;BME280;6573;57.696;11.950;2023-06-24T02:31:51;101797.69;;;20.15;100.00
13015;BME280;6573;57.696;11.950;2023-06-24T02:34:20;101790.59;;;20.14;100.00
13015;BME280;6573;57.696;11.950;2023-06-24T02:36:49;101778.22;;;20.10;100.00
13015;BME280;6573;57.696;11.950;2023-06-24T02:39:20;101781.66;;;20.15;100.00
13015;BME280;6573;57.696;11.950;2023-06-24T02:41:49;101795.78;;;20.20;100.00
13015;BME280;6573;57.696;11.950;2023-06-24T02:44:22;101775.81;;;20.01;100.00
13015;BME280;6573;57.696;11.950;2023-06-24T02:46:53;101797.75;;;20.12;100.00
13015;BME280;6573;57.696;11.950;2023-06-24T02:49:22;101794.31;;;20.07;100.00
13015;BME280;6573;57.696;11.950;2023-06-24T02:51:51;101797.75;;;20.12;100.00
13015;BME280;6573;57.696;11.950;2023-06-24T02:54:23;101808.38;;;20.15;100.00
13015;BME280;6573;57.696;11.950;2023-06-24T02:56:52;101791.63;;;20.09;100.00
13015;BME280;6573;57.696;11.950;2023-06-24T02:59:23;101789.00;;;20.07;100.00
13015;BME280;6573;57.696;11.950;2023-06-24T03:01:54;101817.91;;;20.27;100.00
13015;BME280;6573;57.696;11.950;2023-06-24T03:04:22;101806.41;;;20.23;100.00
13015;BME280;6573;57.696;11.950;2023-06-24T03:06:51;101802.88;;;20.21;100.00
13015;BME280;6573;57.696;11.950;2023-06-24T03:09:21;101805.69;;;20.17;100.00
13015;BME280;6573;57.696;11.950;2023-06-24T03:11:49;101809.31;;;20.14;100.00
13015;BME280;6573;57.696;11.950;2023-06-24T03:14:18;101809.31;;;20.14;100.00
13015;BME280;6573;57.696;11.950;2023-06-24T03:16:47;101803.22;;;20.09;100.00
13015;BME280;6573;57.696;11.950;2023-06-24T03:19:16;101808.19;;;20.24;100.00
13015;BME280;6573;57.696;11.950;2023-06-24T03:21:45;101758.94;;;19.99;100.00
13015;BME280;6573;57.696;11.950;2023-06-24T03:24:14;101799.22;;;20.27;100.00
13015;BME280;6573;57.696;11.950;2023-06-24T03:26:42;101799.28;;;20.22;100.00
13015;BME280;6573;57.696;11.950;2023-06-24T03:29:13;101811.56;;;20.31;100.00
13015;BME280;6573;57.696;11.950;2023-06-24T03:31:42;101812.84;;;20.48;100.00
13015;BME280;6573;57.696;11.950;2023-06-24T03:34:12;101790.63;;;20.46;100.00
13015;BME280;6573;57.696;11.950;2023-06-24T03:36:43;101804.09;;;20.43;100.00
13015;BME280;6573;57.696;11.950;2023-06-24T03:39:12;101805.94;;;20.40;100.00
13015;BME280;6573;57.696;11.950;2023-06-24T03:41:40;101816.63;;;20.41;100.00
13015;BME280;6573;57.696;11.950;2023-06-24T03:44:09;101813.00;;;20.42;100.00
13015;BME280;6573;57.696;11.950;2023-06-24T03:46:37;101820.47;;;20.31;100.00
13015;BME280;6573;57.696;11.950;2023-06-24T03:49:06;101823.25;;;20.27;100.00
13015;BME280;6573;57.696;11.950;2023-06-24T03:51:35;101827.00;;;20.18;100.00
13015;BME280;6573;57.696;11.950;2023-06-24T03:54:05;101829.56;;;20.24;100.00
13015;BME280;6573;57.696;11.950;2023-06-24T03:56:34;101831.28;;;20.25;100.00
13015;BME280;6573;57.696;11.950;2023-06-24T03:59:02;101833.00;;;20.29;100.00
13015;BME280;6573;57.696;11.950;2023-06-24T04:01:32;101843.56;;;20.32;100.00
13015;BME280;6573;57.696;11.950;2023-06-24T04:04:01;101841.91;;;20.28;100.00
13015;BME280;6573;57.696;11.950;2023-06-24T04:06:30;101832.88;;;20.32;100.00
13015;BME280;6573;57.696;11.950;2023-06-24T04:08:58;101838.06;;;20.38;100.00
13015;BME280;6573;57.696;11.950;2023-06-24T04:11:28;101834.38;;;20.42;100.00
13015;BME280;6573;57.696;11.950;2023-06-24T04:13:56;101836.16;;;20.43;100.00
13015;BME280;6573;57.696;11.950;2023-06-24T04:16:25;101824.03;;;20.30;100.00
13015;BME280;6573;57.696;11.950;2023-06-24T04:18:53;101846.66;;;20.49;100.00
13015;BME280;6573;57.696;11.950;2023-06-24T04:21:22;101839.41;;;20.54;100.00
13015;BME280;6573;57.696;11.950;2023-06-24T04:23:51;101848.91;;;20.66;100.00
13015;BME280;6573;57.696;11.950;2023-06-24T04:26:19;101852.34;;;20.70;100.00
13015;BME280;6573;57.696;11.950;2023-06-24T04:28:49;101854.25;;;20.66;100.00
13015;BME280;6573;57.696;11.950;2023-06-24T04:31:17;101851.44;;;20.71;100.00
13015;BME280;6573;57.696;11.950;2023-06-24T04:33:46;101857.34;;;20.82;100.00
13015;BME280;6573;57.696;11.950;2023-06-24T04:36:14;101847.59;;;20.81;100.00
13015;BME280;6573;57.696;11.950;2023-06-24T04:38:43;101853.00;;;20.78;100.00
13015;BME280;6573;57.696;11.950;2023-06-24T04:41:11;101853.91;;;20.77;100.00
13015;BME280;6573;57.696;11.950;2023-06-24T04:43:40;101842.78;;;20.92;100.00
13015;BME280;6573;57.696;11.950;2023-06-24T04:46:10;101846.81;;;21.08;100.00
13015;BME280;6573;57.696;11.950;2023-06-24T04:48:39;101847.50;;;21.14;100.00
13015;BME280;6573;57.696;11.950;2023-06-24T04:51:08;101841.00;;;21.23;100.00
13015;BME280;6573;57.696;11.950;2023-06-24T04:53:37;101830.09;;;21.29;100.00
13015;BME280;6573;57.696;11.950;2023-06-24T04:56:05;101837.66;;;21.15;100.00
13015;BME280;6573;57.696;11.950;2023-06-24T04:58:34;101841.59;;;21.33;100.00
13015;BME280;6573;57.696;11.950;2023-06-24T05:01:03;101834.97;;;21.44;100.00
13015;BME280;6573;57.696;11.950;2023-06-24T05:03:33;101838.28;;;21.52;100.00
13015;BME280;6573;57.696;11.950;2023-06-24T05:06:02;101830.41;;;21.48;100.00
13015;BME280;6573;57.696;11.950;2023-06-24T05:08:30;101839.94;;;21.56;100.00
13015;BME280;6573;57.696;11.950;2023-06-24T05:10:58;101846.75;;;21.66;100.00
13015;BME280;6573;57.696;11.950;2023-06-24T05:13:27;101825.53;;;21.60;100.00
13015;BME280;6573;57.696;11.950;2023-06-24T05:15:56;101827.00;;;21.70;100.00
13015;BME280;6573;57.696;11.950;2023-06-24T05:18:25;101839.03;;;21.83;100.00
13015;BME280;6573;57.696;11.950;2023-06-24T05:20:54;101847.75;;;21.91;100.00
13015;BME280;6573;57.696;11.950;2023-06-24T05:23:23;101844.53;;;21.80;100.00
13015;BME280;6573;57.696;11.950;2023-06-24T05:25:51;101849.00;;;21.80;100.00
13015;BME280;6573;57.696;11.950;2023-06-24T05:28:20;101845.44;;;21.79;100.00
13015;BME280;6573;57.696;11.950;2023-06-24T05:30:49;101850.06;;;21.74;100.00
13015;BME280;6573;57.696;11.950;2023-06-24T05:33:18;101822.31;;;21.49;100.00
13015;BME280;6573;57.696;11.950;2023-06-24T05:35:47;101839.25;;;21.77;100.00
13015;BME280;6573;57.696;11.950;2023-06-24T05:38:17;101855.09;;;21.83;100.00
13015;BME280;6573;57.696;11.950;2023-06-24T05:40:48;101856.50;;;21.97;100.00
13015;BME280;6573;57.696;11.950;2023-06-24T05:43:19;101844.47;;;22.08;100.00
13015;BME280;6573;57.696;11.950;2023-06-24T05:45:47;101851.44;;;22.14;100.00
13015;BME280;6573;57.696;11.950;2023-06-24T05:48:18;101844.63;;;22.04;100.00
13015;BME280;6573;57.696;11.950;2023-06-24T05:50:47;101845.47;;;22.06;100.00
13015;BME280;6573;57.696;11.950;2023-06-24T05:53:16;101839.47;;;22.24;100.00
13015;BME280;6573;57.696;11.950;2023-06-24T05:55:45;101827.31;;;22.14;100.00
13015;BME280;6573;57.696;11.950;2023-06-24T05:58:14;101842.00;;;22.28;100.00
13015;BME280;6573;57.696;11.950;2023-06-24T06:00:42;101839.38;;;22.27;100.00
13015;BME280;6573;57.696;11.950;2023-06-24T06:03:13;101841.00;;;22.31;100.00
13015;BME280;6573;57.696;11.950;2023-06-24T06:05:41;101832.53;;;22.43;100.00
13015;BME280;6573;57.696;11.950;2023-06-24T06:08:10;101827.44;;;22.60;100.00
13015;BME280;6573;57.696;11.950;2023-06-24T06:10:39;101803.72;;;22.49;100.00
13015;BME280;6573;57.696;11.950;2023-06-24T06:13:09;101823.84;;;22.61;100.00
13015;BME280;6573;57.696;11.950;2023-06-24T06:15:37;101835.47;;;22.60;100.00
13015;BME280;6573;57.696;11.950;2023-06-24T06:18:06;101826.38;;;22.66;100.00
13015;BME280;6573;57.696;11.950;2023-06-24T06:20:34;101833.47;;;22.91;100.00
13015;BME280;6573;57.696;11.950;2023-06-24T06:23:03;101835.50;;;23.08;100.00
13015;BME280;6573;57.696;11.950;2023-06-24T06:25:31;101829.25;;;23.07;100.00
13015;BME280;6573;57.696;11.950;2023-06-24T06:28:00;101835.09;;;22.95;100.00
13015;BME280;6573;57.696;11.950;2023-06-24T06:30:30;101831.50;;;22.96;100.00
13015;BME280;6573;57.696;11.950;2023-06-24T06:33:00;101836.94;;;22.70;100.00
13015;BME280;6573;57.696;11.950;2023-06-24T06:35:28;101843.47;;;22.63;100.00
13015;BME280;6573;57.696;11.950;2023-06-24T06:37:58;101851.56;;;22.60;100.00
13015;BME280;6573;57.696;11.950;2023-06-24T06:40:26;101855.66;;;22.47;100.00
13015;BME280;6573;57.696;11.950;2023-06-24T06:42:55;101854.69;;;22.48;100.00
13015;BME280;6573;57.696;11.950;2023-06-24T06:45:24;101865.56;;;22.45;100.00
13015;BME280;6573;57.696;11.950;2023-06-24T06:47:54;101860.50;;;22.36;100.00
13015;BME280;6573;57.696;11.950;2023-06-24T06:50:23;101852.19;;;22.43;100.00
13015;BME280;6573;57.696;11.950;2023-06-24T06:52:51;101857.09;;;22.31;100.00
13015;BME280;6573;57.696;11.950;2023-06-24T06:55:20;101857.97;;;22.31;100.00
13015;BME280;6573;57.696;11.950;2023-06-24T06:57:48;101859.19;;;22.23;100.00
13015;BME280;6573;57.696;11.950;2023-06-24T07:00:17;101860.41;;;22.39;100.00
13015;BME280;6573;57.696;11.950;2023-06-24T07:02:45;101861.81;;;22.49;100.00
13015;BME280;6573;57.696;11.950;2023-06-24T07:05:15;101867.28;;;22.46;100.00
13015;BME280;6573;57.696;11.950;2023-06-24T07:07:44;101850.28;;;22.47;100.00
13015;BME280;6573;57.696;11.950;2023-06-24T07:10:12;101860.22;;;22.70;100.00
13015;BME280;6573;57.696;11.950;2023-06-24T07:12:41;101862.94;;;22.68;100.00
13015;BME280;6573;57.696;11.950;2023-06-24T07:15:10;101871.16;;;22.88;100.00
13015;BME280;6573;57.696;11.950;2023-06-24T07:17:39;101870.78;;;22.97;100.00
13015;BME280;6573;57.696;11.950;2023-06-24T07:20:09;101870.09;;;22.92;100.00
13015;BME280;6573;57.696;11.950;2023-06-24T07:22:40;101875.69;;;22.86;100.00
13015;BME280;6573;57.696;11.950;2023-06-24T07:25:09;101843.00;;;22.75;100.00
13015;BME280;6573;57.696;11.950;2023-06-24T07:27:37;101865.22;;;23.03;100.00
13015;BME280;6573;57.696;11.950;2023-06-24T07:30:07;101863.13;;;23.11;100.00
13015;BME280;6573;57.696;11.950;2023-06-24T07:32:37;101871.13;;;23.36;100.00
13015;BME280;6573;57.696;11.950;2023-06-24T07:35:06;101864.16;;;23.31;100.00
13015;BME280;6573;57.696;11.950;2023-06-24T07:37:35;101866.25;;;23.23;100.00
13015;BME280;6573;57.696;11.950;2023-06-24T07:40:08;101873.22;;;23.51;100.00
13015;BME280;6573;57.696;11.950;2023-06-24T07:42:38;101868.75;;;23.73;100.00
13015;BME280;6573;57.696;11.950;2023-06-24T07:45:07;101859.50;;;23.59;100.00
13015;BME280;6573;57.696;11.950;2023-06-24T07:47:39;101863.09;;;23.58;100.00
13015;BME280;6573;57.696;11.950;2023-06-24T07:50:08;101868.47;;;23.79;100.00
13015;BME280;6573;57.696;11.950;2023-06-24T07:52:38;101866.72;;;24.00;100.00
13015;BME280;6573;57.696;11.950;2023-06-24T07:55:08;101863.16;;;24.21;100.00
13015;BME280;6573;57.696;11.950;2023-06-24T07:57:37;101861.59;;;23.94;100.00
13015;BME280;6573;57.696;11.950;2023-06-24T08:00:07;101865.34;;;23.90;100.00
13015;BME280;6573;57.696;11.950;2023-06-24T08:02:40;101879.34;;;23.55;100.00
13015;BME280;6573;57.696;11.950;2023-06-24T08:05:09;101879.09;;;23.61;100.00
13015;BME280;6573;57.696;11.950;2023-06-24T08:07:37;101869.97;;;23.65;100.00
13015;BME280;6573;57.696;11.950;2023-06-24T08:10:08;101857.69;;;23.81;100.00
13015;BME280;6573;57.696;11.950;2023-06-24T08:12:37;101881.31;;;24.16;100.00
13015;BME280;6573;57.696;11.950;2023-06-24T08:15:08;101879.44;;;24.18;100.00
13015;BME280;6573;57.696;11.950;2023-06-24T08:17:37;101883.25;;;23.91;100.00
13015;BME280;6573;57.696;11.950;2023-06-24T08:20:07;101881.63;;;24.09;100.00
13015;BME280;6573;57.696;11.950;2023-06-24T08:22:35;101882.38;;;24.12;100.00
13015;BME280;6573;57.696;11.950;2023-06-24T08:25:07;101880.38;;;24.17;100.00
13015;BME280;6573;57.696;11.950;2023-06-24T08:27:38;101886.84;;;24.33;100.00
13015;BME280;6573;57.696;11.950;2023-06-24T08:30:07;101892.31;;;24.52;100.00
13015;BME280;6573;57.696;11.950;2023-06-24T08:32:36;101893.31;;;24.50;100.00
13015;BME280;6573;57.696;11.950;2023-06-24T08:35:06;101882.28;;;24.35;100.00
13015;BME280;6573;57.696;11.950;2023-06-24T08:37:35;101882.97;;;24.40;100.00
13015;BME280;6573;57.696;11.950;2023-06-24T08:40:04;101885.56;;;24.42;100.00
13015;BME280;6573;57.696;11.950;2023-06-24T08:42:33;101869.81;;;23.91;100.00
13015;BME280;6573;57.696;11.950;2023-06-24T08:45:03;101876.75;;;24.18;100.00
13015;BME280;6573;57.696;11.950;2023-06-24T08:47:32;101863.81;;;24.26;100.00
13015;BME280;6573;57.696;11.950;2023-06-24T08:50:04;101887.44;;;24.40;100.00
13015;BME280;6573;57.696;11.950;2023-06-24T08:52:35;101887.31;;;24.43;100.00
13015;BME280;6573;57.696;11.950;2023-06-24T08:55:06;101892.59;;;24.24;100.00
13015;BME280;6573;57.696;11.950;2023-06-24T08:57:38;101886.84;;;24.33;100.00
13015;BME280;6573;57.696;11.950;2023-06-24T09:00:09;101888.34;;;24.40;100.00
13015;BME280;6573;57.696;11.950;2023-06-24T09:02:38;101886.69;;;24.36;100.00
13015;BME280;6573;57.696;11.950;2023-06-24T09:05:08;101890.06;;;24.41;100.00
13015;BME280;6573;57.696;11.950;2023-06-24T09:07:36;101892.59;;;24.24;100.00
13015;BME280;6573;57.696;11.950;2023-06-24T09:10:05;101895.63;;;24.17;100.00
13015;BME280;6573;57.696;11.950;2023-06-24T09:12:34;101892.34;;;24.30;100.00
13015;BME280;6573;57.696;11.950;2023-06-24T09:15:04;101883.34;;;24.31;100.00
13015;BME280;6573;57.696;11.950;2023-06-24T09:17:43;101882.13;;;24.59;100.00
13015;BME280;6573;57.696;11.950;2023-06-24T09:20:14;101863.84;;;24.67;100.00
13015;BME280;6573;57.696;11.950;2023-06-24T09:22:48;101871.34;;;24.80;100.00
13015;BME280;6573;57.696;11.950;2023-06-24T09:25:17;101891.56;;;24.89;100.00
13015;BME280;6573;57.696;11.950;2023-06-24T09:27:49;101889.47;;;25.16;100.00
13015;BME280;6573;57.696;11.950;2023-06-24T09:30:20;101884.63;;;25.03;100.00
13015;BME280;6573;57.696;11.950;2023-06-24T09:32:51;101889.38;;;24.78;100.00
13015;BME280;6573;57.696;11.950;2023-06-24T09:35:22;101892.50;;;25.08;100.00
13015;BME280;6573;57.696;11.950;2023-06-24T09:37:52;101885.09;;;25.13;100.00
13015;BME280;6573;57.696;11.950;2023-06-24T09:40:21;101888.16;;;25.24;100.00
13015;BME280;6573;57.696;11.950;2023-06-24T09:42:51;101888.59;;;25.15;100.00
13015;BME280;6573;57.696;11.950;2023-06-24T09:45:24;101895.69;;;24.97;100.00
13015;BME280;6573;57.696;11.950;2023-06-24T09:47:57;101890.47;;;25.13;100.00
13015;BME280;6573;57.696;11.950;2023-06-24T09:50:26;101891.78;;;25.23;100.00
13015;BME280;6573;57.696;11.950;2023-06-24T09:52:55;101887.38;;;25.02;100.00
13015;BME280;6573;57.696;11.950;2023-06-24T09:55:25;101897.72;;;25.11;100.00
13015;BME280;6573;57.696;11.950;2023-06-24T09:57:56;101892.09;;;24.77;100.00
13015;BME280;6573;57.696;11.950;2023-06-24T10:00:24;101896.56;;;24.58;100.00
13015;BME280;6573;57.696;11.950;2023-06-24T10:02:56;101882.44;;;24.93;100.00
13015;BME280;6573;57.696;11.950;2023-06-24T10:05:27;101908.03;;;24.83;100.00
13015;BME280;6573;57.696;11.950;2023-06-24T10:07:59;101909.25;;;24.74;100.00
13015;BME280;6573;57.696;11.950;2023-06-24T10:10:30;101905.69;;;25.14;100.00
13015;BME280;6573;57.696;11.950;2023-06-24T10:12:59;101892.56;;;25.45;100.00
13015;BME280;6573;57.696;11.950;2023-06-24T10:15:28;101887.75;;;25.52;100.00
13015;BME280;6573;57.696;11.950;2023-06-24T10:18:02;101886.88;;;25.51;100.00
13015;BME280;6573;57.696;11.950;2023-06-24T10:20:37;101897.97;;;25.45;100.00
13015;BME280;6573;57.696;11.950;2023-06-24T10:23:06;101886.78;;;25.34;100.00
13015;BME280;6573;57.696;11.950;2023-06-24T10:25:36;101885.53;;;25.41;100.00
13015;BME280;6573;57.696;11.950;2023-06-24T10:28:04;101884.59;;;25.42;100.00
13015;BME280;6573;57.696;11.950;2023-06-24T10:30:33;101888.91;;;25.65;100.00
13015;BME280;6573;57.696;11.950;2023-06-24T10:33:09;101874.63;;;25.63;100.00
13015;BME280;6573;57.696;11.950;2023-06-24T10:35:41;101887.81;;;25.50;100.00
13015;BME280;6573;57.696;11.950;2023-06-24T10:38:12;101876.50;;;25.42;100.00
13015;BME280;6573;57.696;11.950;2023-06-24T10:40:42;101892.50;;;24.68;100.00
13015;BME280;6573;57.696;11.950;2023-06-24T10:43:28;101885.63;;;25.01;100.00
13015;BME280;6573;57.696;11.950;2023-06-24T10:46:01;101888.53;;;25.35;100.00
13015;BME280;6573;57.696;11.950;2023-06-24T10:48:31;101890.91;;;25.41;100.00
13015;BME280;6573;57.696;11.950;2023-06-24T10:51:00;101889.75;;;25.28;100.00
13015;BME280;6573;57.696;11.950;2023-06-24T10:53:30;101882.50;;;25.49;100.00
13015;BME280;6573;57.696;11.950;2023-06-24T10:56:01;101889.34;;;25.75;100.00
13015;BME280;6573;57.696;11.950;2023-06-24T10:58:31;101888.75;;;25.87;100.00
13015;BME280;6573;57.696;11.950;2023-06-24T11:01:07;101896.94;;;25.66;100.00
13015;BME280;6573;57.696;11.950;2023-06-24T11:03:39;101899.53;;;25.68;100.00
13015;BME280;6573;57.696;11.950;2023-06-24T11:06:10;101884.59;;;25.42;100.00
13015;BME280;6573;57.696;11.950;2023-06-24T11:08:43;101895.88;;;25.50;100.00
13015;BME280;6573;57.696;11.950;2023-06-24T11:11:18;101893.28;;;25.67;100.00
13015;BME280;6573;57.696;11.950;2023-06-24T11:13:48;101898.38;;;25.73;100.00
13015;BME280;6573;57.696;11.950;2023-06-24T11:16:20;101892.41;;;25.48;100.00
13015;BME280;6573;57.696;11.950;2023-06-24T11:18:50;101893.31;;;24.50;100.00
13015;BME280;6573;57.696;11.950;2023-06-24T11:21:19;101899.03;;;25.02;100.00
13015;BME280;6573;57.696;11.950;2023-06-24T11:23:47;101895.88;;;25.13;100.00
13015;BME280;6573;57.696;11.950;2023-06-24T11:26:16;101893.19;;;24.93;100.00
13015;BME280;6573;57.696;11.950;2023-06-24T11:28:44;101900.94;;;25.19;100.00
13015;BME280;6573;57.696;11.950;2023-06-24T11:31:13;101904.16;;;25.27;100.00
13015;BME280;6573;57.696;11.950;2023-06-24T11:33:41;101908.38;;;25.14;100.00
13015;BME280;6573;57.696;11.950;2023-06-24T11:36:11;101914.75;;;25.12;100.00
13015;BME280;6573;57.696;11.950;2023-06-24T11:38:40;101907.78;;;25.26;100.00
13015;BME280;6573;57.696;11.950;2023-06-24T11:41:08;101906.91;;;24.67;100.00
13015;BME280;6573;57.696;11.950;2023-06-24T11:43:37;101905.00;;;24.28;100.00
13015;BME280;6573;57.696;11.950;2023-06-24T11:46:05;101915.78;;;24.69;100.00
13015;BME280;6573;57.696;11.950;2023-06-24T11:48:39;101917.78;;;24.23;100.00
13015;BME280;6573;57.696;11.950;2023-06-24T11:51:14;101921.66;;;24.16;100.00
13015;BME280;6573;57.696;11.950;2023-06-24T11:53:43;101927.19;;;24.12;100.00
13015;BME280;6573;57.696;11.950;2023-06-24T11:56:12;101925.50;;;24.09;100.00
13015;BME280;6573;57.696;11.950;2023-06-24T11:58:43;101927.16;;;24.13;100.00
13015;BME280;6573;57.696;11.950;2023-06-24T12:01:11;101922.25;;;24.01;100.00
13015;BME280;6573;57.696;11.950;2023-06-24T12:03:41;101930.13;;;23.84;100.00
13015;BME280;6573;57.696;11.950;2023-06-24T12:06:10;101930.47;;;23.29;100.00
13015;BME280;6573;57.696;11.950;2023-06-24T12:08:40;101940.63;;;23.67;100.00
13015;BME280;6573;57.696;11.950;2023-06-24T12:11:18;101937.63;;;23.76;100.00
13015;BME280;6573;57.696;11.950;2023-06-24T12:13:46;101943.59;;;24.04;100.00
13015;BME280;6573;57.696;11.950;2023-06-24T12:16:15;101942.75;;;23.36;100.00
13015;BME280;6573;57.696;11.950;2023-06-24T12:18:44;101953.28;;;22.92;100.00
13015;BME280;6573;57.696;11.950;2023-06-24T12:21:12;101939.22;;;23.10;100.00
13015;BME280;6573;57.696;11.950;2023-06-24T12:23:42;101945.47;;;23.59;100.00
13015;BME280;6573;57.696;11.950;2023-06-24T12:26:11;101935.25;;;23.90;100.00
13015;BME280;6573;57.696;11.950;2023-06-24T12:28:40;101950.66;;;24.08;100.00
13015;BME280;6573;57.696;11.950;2023-06-24T12:31:08;101942.28;;;24.16;100.00
13015;BME280;6573;57.696;11.950;2023-06-24T12:33:37;101944.03;;;24.38;100.00
13015;BME280;6573;57.696;11.950;2023-06-24T12:36:05;101945.63;;;24.42;100.00
13015;BME280;6573;57.696;11.950;2023-06-24T12:38:34;101943.88;;;23.98;100.00
13015;BME280;6573;57.696;11.950;2023-06-24T12:41:09;101949.34;;;24.18;100.00
13015;BME280;6573;57.696;11.950;2023-06-24T12:43:37;101948.16;;;24.25;100.00
13015;BME280;6573;57.696;11.950;2023-06-24T12:46:06;101943.19;;;23.24;100.00
13015;BME280;6573;57.696;11.950;2023-06-24T12:48:34;101921.81;;;23.20;100.00
13015;BME280;6573;57.696;11.950;2023-06-24T12:51:02;101924.97;;;23.78;100.00
13015;BME280;6573;57.696;11.950;2023-06-24T12:53:31;101951.47;;;23.65;100.00
13015;BME280;6573;57.696;11.950;2023-06-24T12:56:00;101950.09;;;23.77;100.00